Time;durP1;ratioP1;P1;durP2;ratioP2;P2;SDS_P1;SDS_P2;PMS_P1;PMS_P2;Temp;Humidity;BMP_temperature;BMP_pressure;BME280_temperature;BME280_humidity;BME280_pressure;Samples;Min_cycle;Max_cycle;Signal;HPM_P1;HPM_P2
2023/04/16 00:02:21;;;;;;;7.70;4.65;;;;;;;;;;5041635;28;20042;-57
2023/04/16 00:04:47;;;;;;;8.88;5.53;;;;;;;;;;5045404;28;20025;-58
2023/04/16 00:07:14;;;;;;;7.00;4.90;;;;;;;;;;5046803;28;20049;-58
2023/04/16 00:09:40;;;;;;;7.75;5.35;;;;;;;;;;5047588;28;20028;-58
2023/04/16 00:12:06;;;;;;;9.20;5.38;;;;;;;;;;5045004;28;20508;-59
2023/04/16 00:14:32;;;;;;;9.02;5.30;;;;;;;;;;5040042;28;20053;-58
2023/04/16 00:16:58;;;;;;;10.50;5.82;;;;;;;;;;5044183;28;20025;-58
2023/04/16 00:19:24;;;;;;;7.72;5.45;;;;;;;;;;5048318;28;20513;-58
2023/04/16 00:21:50;;;;;;;7.82;5.32;;;;;;;;;;5039663;28;20056;-58
2023/04/16 00:24:16;;;;;;;7.72;5.65;;;;;;;;;;5041978;28;20033;-57
2023/04/16 00:26:45;;;;;;;9.10;5.32;;;;;;;;;;5043366;28;20395;-58
2023/04/16 00:29:11;;;;;;;9.70;5.68;;;;;;;;;;5042125;28;20063;-58
2023/04/16 00:31:37;;;;;;;8.23;5.40;;;;;;;;;;5046556;28;20044;-58
2023/04/16 00:34:03;;;;;;;9.85;6.45;;;;;;;;;;5042862;28;20041;-58
2023/04/16 00:36:30;;;;;;;9.30;5.72;;;;;;;;;;5044972;28;20380;-58
2023/04/16 00:38:56;;;;;;;10.00;5.88;;;;;;;;;;5045138;28;20053;-58
2023/04/16 00:41:22;;;;;;;9.38;6.00;;;;;;;;;;5049630;28;20040;-58
2023/04/16 00:43:49;;;;;;;8.73;5.95;;;;;;;;;;5047323;28;20039;-58
2023/04/16 00:46:16;;;;;;;9.73;5.82;;;;;;;;;;5038905;28;20033;-58
2023/04/16 00:48:44;;;;;;;9.80;6.18;;;;;;;;;;5050610;28;20033;-58
2023/04/16 00:51:10;;;;;;;9.32;5.82;;;;;;;;;;5046661;28;20051;-58
2023/04/16 00:53:37;;;;;;;10.70;6.30;;;;;;;;;;5048070;28;20052;-58
2023/04/16 00:56:05;;;;;;;11.38;6.10;;;;;;;;;;5031220;28;20053;-57
2023/04/16 00:58:34;;;;;;;10.55;6.85;;;;;;;;;;5040328;28;20387;-58
2023/04/16 01:01:00;;;;;;;10.35;6.20;;;;;;;;;;5044193;28;20040;-57
2023/04/16 01:03:42;;;;;;;10.40;6.07;;;;;;;;;;5044997;28;20431;-57
2023/04/16 01:06:09;;;;;;;10.95;6.70;;;;;;;;;;5043479;28;20499;-58
2023/04/16 01:08:35;;;;;;;10.57;6.50;;;;;;;;;;5045763;28;20402;-57
2023/04/16 01:11:02;;;;;;;10.70;6.40;;;;;;;;;;5047825;28;20033;-57
2023/04/16 01:13:28;;;;;;;9.85;6.15;;;;;;;;;;5028793;28;20033;-58
2023/04/16 01:15:54;;;;;;;10.35;6.70;;;;;;;;;;5038986;28;20041;-58
2023/04/16 01:18:22;;;;;;;10.20;6.45;;;;;;;;;;5043611;28;20032;-58
2023/04/16 01:20:49;;;;;;;11.23;6.78;;;;;;;;;;5046639;28;20040;-57
2023/04/16 01:23:17;;;;;;;10.05;6.13;;;;;;;;;;5041940;28;20037;-58
2023/04/16 01:25:44;;;;;;;9.50;6.05;;;;;;;;;;5027645;28;20040;-58
2023/04/16 01:28:11;;;;;;;10.27;6.10;;;;;;;;;;5046528;28;20044;-58
2023/04/16 01:30:37;;;;;;;10.55;6.28;;;;;;;;;;5043289;28;20053;-58
2023/04/16 01:33:20;;;;;;;11.43;6.82;;;;;;;;;;5042821;28;20038;-57
2023/04/16 01:35:46;;;;;;;10.77;6.88;;;;;;;;;;5035483;28;20034;-58
2023/04/16 01:38:15;;;;;;;11.43;7.40;;;;;;;;;;5044219;28;20036;-58
2023/04/16 01:40:41;;;;;;;12.38;7.07;;;;;;;;;;5024159;28;20044;-59
2023/04/16 01:43:08;;;;;;;12.18;7.35;;;;;;;;;;5041587;28;20041;-57
2023/04/16 01:45:34;;;;;;;10.88;7.20;;;;;;;;;;5038578;28;20037;-58
2023/04/16 01:48:01;;;;;;;11.38;7.28;;;;;;;;;;5058752;28;20376;-57
2023/04/16 01:50:28;;;;;;;11.38;7.10;;;;;;;;;;5060297;28;20032;-58
2023/04/16 01:52:54;;;;;;;10.32;6.85;;;;;;;;;;5045312;28;20053;-57
2023/04/16 01:55:20;;;;;;;12.70;7.45;;;;;;;;;;5050157;28;20040;-58
2023/04/16 01:57:47;;;;;;;11.52;6.78;;;;;;;;;;5048971;28;20616;-57
2023/04/16 02:00:14;;;;;;;12.20;7.25;;;;;;;;;;5040746;28;20041;-58
2023/04/16 02:02:47;;;;;;;11.68;6.82;;;;;;;;;;5048791;28;20037;-57
2023/04/16 02:05:20;;;;;;;11.77;7.15;;;;;;;;;;5044108;28;20518;-58
2023/04/16 02:07:46;;;;;;;11.93;6.97;;;;;;;;;;5052774;28;20248;-58
2023/04/16 02:10:12;;;;;;;12.52;7.72;;;;;;;;;;5045919;28;20029;-58
2023/04/16 02:12:39;;;;;;;11.40;7.20;;;;;;;;;;5050033;28;20529;-58
2023/04/16 02:15:06;;;;;;;11.30;7.15;;;;;;;;;;5048051;28;20051;-58
2023/04/16 02:17:32;;;;;;;12.82;6.80;;;;;;;;;;5048596;28;20037;-57
2023/04/16 02:20:09;;;;;;;12.23;7.45;;;;;;;;;;5045926;28;20044;-58
2023/04/16 02:22:42;;;;;;;11.50;7.20;;;;;;;;;;5043544;28;20033;-58
2023/04/16 02:25:10;;;;;;;10.73;6.80;;;;;;;;;;5047864;28;20049;-57
2023/04/16 02:27:36;;;;;;;11.10;7.07;;;;;;;;;;5053128;28;20530;-58
2023/04/16 02:30:18;;;;;;;11.10;6.60;;;;;;;;;;5039454;28;20048;-58
2023/04/16 02:32:44;;;;;;;9.43;6.43;;;;;;;;;;5040943;28;20033;-57
2023/04/16 02:35:10;;;;;;;10.80;6.38;;;;;;;;;;5041673;28;20052;-58
2023/04/16 02:37:39;;;;;;;9.65;6.15;;;;;;;;;;5042873;28;20041;-58
2023/04/16 02:40:06;;;;;;;9.55;6.22;;;;;;;;;;5037982;28;20049;-58
2023/04/16 02:42:32;;;;;;;9.90;6.15;;;;;;;;;;5039892;28;20487;-58
2023/04/16 02:44:58;;;;;;;9.02;5.88;;;;;;;;;;5041238;28;20036;-58
2023/04/16 02:47:24;;;;;;;8.77;5.85;;;;;;;;;;5049348;28;20052;-57
2023/04/16 02:49:50;;;;;;;9.00;5.55;;;;;;;;;;5055365;28;20059;-59
2023/04/16 02:52:16;;;;;;;8.70;5.75;;;;;;;;;;5041840;28;20116;-58
2023/04/16 02:54:43;;;;;;;9.63;5.80;;;;;;;;;;5043890;28;20033;-58
2023/04/16 02:57:09;;;;;;;9.63;5.35;;;;;;;;;;5042358;28;20040;-58
2023/04/16 02:59:35;;;;;;;7.85;5.45;;;;;;;;;;5040125;28;20064;-57
2023/04/16 03:02:01;;;;;;;7.43;5.13;;;;;;;;;;5045961;28;20044;-58
2023/04/16 03:04:27;;;;;;;8.50;5.45;;;;;;;;;;5049261;28;20068;-58
2023/04/16 03:06:53;;;;;;;7.82;5.47;;;;;;;;;;5047800;28;20036;-58
2023/04/16 03:09:19;;;;;;;7.75;5.15;;;;;;;;;;5041030;28;20037;-58
2023/04/16 03:11:46;;;;;;;8.65;5.47;;;;;;;;;;5043584;28;20078;-58
2023/04/16 03:14:12;;;;;;;8.65;5.13;;;;;;;;;;5047180;28;20387;-59
2023/04/16 03:16:38;;;;;;;8.02;4.82;;;;;;;;;;5051857;28;20029;-57
2023/04/16 03:19:04;;;;;;;9.02;5.15;;;;;;;;;;5042028;28;20024;-57
2023/04/16 03:21:30;;;;;;;7.60;5.00;;;;;;;;;;5044719;28;20052;-58
2023/04/16 03:23:58;;;;;;;7.03;4.75;;;;;;;;;;5046115;28;20509;-57
2023/04/16 03:26:24;;;;;;;7.60;5.40;;;;;;;;;;5050296;28;20052;-57
2023/04/16 03:28:50;;;;;;;9.23;5.05;;;;;;;;;;5046013;28;20033;-58
2023/04/16 03:31:16;;;;;;;7.07;4.90;;;;;;;;;;5046272;28;20048;-58
2023/04/16 03:33:43;;;;;;;7.40;4.72;;;;;;;;;;5040359;28;20544;-58
2023/04/16 03:36:09;;;;;;;7.82;4.57;;;;;;;;;;5048592;28;20033;-58
2023/04/16 03:38:35;;;;;;;7.75;4.90;;;;;;;;;;5038873;28;20398;-58
2023/04/16 03:41:01;;;;;;;7.30;4.88;;;;;;;;;;5045031;28;20395;-59
2023/04/16 03:43:30;;;;;;;6.80;4.07;;;;;;;;;;5045544;28;20024;-58
2023/04/16 03:45:56;;;;;;;7.15;4.13;;;;;;;;;;5055266;28;20045;-58
2023/04/16 03:48:23;;;;;;;7.72;5.15;;;;;;;;;;5058369;28;20059;-58
2023/04/16 03:50:49;;;;;;;8.30;5.30;;;;;;;;;;5043620;28;20422;-58
2023/04/16 03:53:18;;;;;;;7.15;4.70;;;;;;;;;;5045745;28;20041;-58
2023/04/16 03:55:49;;;;;;;7.38;4.75;;;;;;;;;;5045662;28;20044;-58
2023/04/16 03:58:15;;;;;;;7.15;4.95;;;;;;;;;;5038243;28;20032;-58
2023/04/16 04:00:42;;;;;;;6.80;4.75;;;;;;;;;;5037613;28;20033;-58
2023/04/16 04:03:12;;;;;;;7.47;4.50;;;;;;;;;;5043396;28;20030;-59
2023/04/16 04:05:40;;;;;;;6.90;4.53;;;;;;;;;;5034535;28;20032;-58
2023/04/16 04:08:08;;;;;;;7.28;4.80;;;;;;;;;;5040886;28;20052;-59
2023/04/16 04:10:35;;;;;;;7.53;5.10;;;;;;;;;;5041910;28;20419;-58
2023/04/16 04:13:04;;;;;;;7.22;4.32;;;;;;;;;;5047313;28;20035;-59
2023/04/16 04:15:32;;;;;;;7.45;4.28;;;;;;;;;;5048563;28;20043;-59
2023/04/16 04:17:58;;;;;;;8.32;4.80;;;;;;;;;;5031392;28;20037;-58
2023/04/16 04:20:24;;;;;;;7.22;4.15;;;;;;;;;;5038728;28;20033;-58
2023/04/16 04:22:52;;;;;;;5.85;4.10;;;;;;;;;;5045626;28;20045;-57
2023/04/16 04:25:21;;;;;;;7.55;4.70;;;;;;;;;;5042897;28;20055;-58
2023/04/16 04:27:47;;;;;;;8.15;4.68;;;;;;;;;;5040197;28;20056;-59
2023/04/16 04:30:13;;;;;;;8.07;4.40;;;;;;;;;;5043008;28;20036;-58
2023/04/16 04:32:40;;;;;;;9.52;5.30;;;;;;;;;;5042669;28;20088;-58
2023/04/16 04:35:08;;;;;;;7.72;4.85;;;;;;;;;;5044733;28;20037;-58
2023/04/16 04:37:34;;;;;;;7.97;4.97;;;;;;;;;;5032596;28;20025;-57
2023/04/16 04:40:07;;;;;;;7.82;4.95;;;;;;;;;;5050021;28;20036;-58
2023/04/16 04:42:35;;;;;;;7.93;4.82;;;;;;;;;;5045825;28;20399;-57
2023/04/16 04:45:01;;;;;;;8.43;5.32;;;;;;;;;;5042225;28;20059;-58
2023/04/16 04:47:30;;;;;;;8.07;4.93;;;;;;;;;;5039413;28;20459;-58
2023/04/16 04:49:56;;;;;;;8.45;5.53;;;;;;;;;;5049389;28;20044;-56
2023/04/16 04:52:22;;;;;;;10.90;6.07;;;;;;;;;;5026910;28;20521;-57
2023/04/16 04:54:50;;;;;;;9.65;5.13;;;;;;;;;;5043904;28;20032;-58
2023/04/16 04:57:16;;;;;;;10.05;5.72;;;;;;;;;;5046459;28;20422;-58
2023/04/16 04:59:42;;;;;;;12.77;6.30;;;;;;;;;;5042355;28;20542;-59
2023/04/16 05:02:10;;;;;;;11.35;6.15;;;;;;;;;;5045203;28;20138;-58
2023/04/16 05:04:36;;;;;;;11.70;6.22;;;;;;;;;;5046683;28;20029;-57
2023/04/16 05:07:02;;;;;;;11.43;6.70;;;;;;;;;;5046456;28;20037;-58
2023/04/16 05:09:28;;;;;;;10.38;5.60;;;;;;;;;;5040007;28;20052;-59
2023/04/16 05:11:54;;;;;;;11.02;6.07;;;;;;;;;;5045713;28;20041;-59
2023/04/16 05:14:20;;;;;;;10.93;5.85;;;;;;;;;;5042572;28;20033;-58
2023/04/16 05:16:46;;;;;;;10.70;6.38;;;;;;;;;;5048598;28;20052;-59
2023/04/16 05:19:12;;;;;;;12.43;6.07;;;;;;;;;;5041956;28;20040;-60
2023/04/16 05:21:39;;;;;;;11.30;5.80;;;;;;;;;;5048060;28;20056;-58
2023/04/16 05:24:06;;;;;;;10.45;6.28;;;;;;;;;;5048795;28;20104;-58
2023/04/16 05:26:32;;;;;;;13.52;6.53;;;;;;;;;;5050573;28;20029;-59
2023/04/16 05:28:58;;;;;;;12.93;6.18;;;;;;;;;;5047963;28;20044;-60
2023/04/16 05:31:25;;;;;;;12.40;6.43;;;;;;;;;;5037545;28;20037;-59
2023/04/16 05:33:51;;;;;;;10.88;6.60;;;;;;;;;;5042372;28;20025;-58
2023/04/16 05:36:17;;;;;;;12.50;6.88;;;;;;;;;;5051183;28;20040;-59
2023/04/16 05:38:43;;;;;;;11.60;6.88;;;;;;;;;;5048787;28;20029;-58
2023/04/16 05:41:09;;;;;;;9.93;5.65;;;;;;;;;;5040953;28;20491;-59
2023/04/16 05:43:35;;;;;;;11.35;6.20;;;;;;;;;;5053043;28;20432;-59
2023/04/16 05:46:01;;;;;;;12.50;6.88;;;;;;;;;;5061142;28;20071;-59
2023/04/16 05:48:27;;;;;;;11.75;6.22;;;;;;;;;;5043501;28;20491;-59
2023/04/16 05:50:53;;;;;;;11.43;6.10;;;;;;;;;;5049593;28;20057;-59
2023/04/16 05:53:20;;;;;;;11.98;6.22;;;;;;;;;;5048875;28;20033;-58
2023/04/16 05:55:46;;;;;;;11.45;6.40;;;;;;;;;;5050569;28;20139;-59
2023/04/16 05:58:12;;;;;;;13.27;6.93;;;;;;;;;;5039957;28;20029;-59
2023/04/16 06:00:39;;;;;;;11.20;6.95;;;;;;;;;;5044166;28;20033;-58
2023/04/16 06:03:05;;;;;;;12.25;6.63;;;;;;;;;;5046105;28;20033;-59
2023/04/16 06:05:31;;;;;;;10.07;5.57;;;;;;;;;;5049675;28;20052;-58
2023/04/16 06:07:57;;;;;;;11.70;6.18;;;;;;;;;;5051596;28;20071;-59
2023/04/16 06:10:23;;;;;;;8.70;5.30;;;;;;;;;;5043959;28;20037;-59
2023/04/16 06:12:50;;;;;;;9.77;5.55;;;;;;;;;;5048182;28;20387;-58
2023/04/16 06:15:16;;;;;;;9.75;5.47;;;;;;;;;;5045318;28;20039;-59
2023/04/16 06:17:42;;;;;;;9.65;5.97;;;;;;;;;;5052410;28;20028;-59
2023/04/16 06:20:09;;;;;;;11.82;5.93;;;;;;;;;;5046795;28;20036;-59
2023/04/16 06:22:35;;;;;;;14.20;6.30;;;;;;;;;;5047301;28;20033;-58
2023/04/16 06:25:01;;;;;;;17.40;6.90;;;;;;;;;;5048294;28;20505;-59
2023/04/16 06:27:27;;;;;;;12.38;6.57;;;;;;;;;;5044678;28;20088;-59
2023/04/16 06:29:56;;;;;;;14.23;6.18;;;;;;;;;;5049234;28;20036;-58
2023/04/16 06:32:22;;;;;;;12.65;6.25;;;;;;;;;;5042826;28;20494;-58
2023/04/16 06:34:48;;;;;;;14.98;7.50;;;;;;;;;;5055582;28;20040;-59
2023/04/16 06:37:15;;;;;;;12.38;6.38;;;;;;;;;;5048859;28;20040;-58
2023/04/16 06:39:41;;;;;;;14.20;7.50;;;;;;;;;;5044754;28;20402;-59
2023/04/16 06:42:07;;;;;;;15.55;7.38;;;;;;;;;;5038291;28;20372;-59
2023/04/16 06:44:34;;;;;;;14.52;7.68;;;;;;;;;;5049767;28;20044;-59
2023/04/16 06:47:00;;;;;;;19.02;8.88;;;;;;;;;;5059210;28;20060;-59
2023/04/16 06:49:26;;;;;;;15.25;8.00;;;;;;;;;;5039003;28;20392;-59
2023/04/16 06:51:53;;;;;;;17.15;8.32;;;;;;;;;;5035290;28;20037;-59
2023/04/16 06:54:19;;;;;;;19.45;9.38;;;;;;;;;;5039777;28;20053;-59
2023/04/16 06:56:45;;;;;;;19.23;9.57;;;;;;;;;;5039294;28;20036;-59
2023/04/16 06:59:11;;;;;;;25.38;11.63;;;;;;;;;;5036549;28;20387;-60
2023/04/16 07:01:37;;;;;;;20.30;9.63;;;;;;;;;;5045912;28;20400;-59
2023/04/16 07:04:03;;;;;;;21.58;10.38;;;;;;;;;;5044303;28;20048;-59
2023/04/16 07:06:30;;;;;;;22.27;10.65;;;;;;;;;;5046646;28;20029;-58
2023/04/16 07:08:56;;;;;;;25.75;11.60;;;;;;;;;;5046635;28;20040;-58
2023/04/16 07:11:24;;;;;;;24.10;12.10;;;;;;;;;;5043815;28;20044;-59
2023/04/16 07:13:52;;;;;;;27.25;13.13;;;;;;;;;;5048506;28;20040;-59
2023/04/16 07:16:18;;;;;;;25.42;12.95;;;;;;;;;;5050644;28;20033;-58
2023/04/16 07:18:44;;;;;;;31.20;13.45;;;;;;;;;;5041796;28;20044;-60
2023/04/16 07:21:11;;;;;;;28.25;13.43;;;;;;;;;;5044515;28;20041;-58
2023/04/16 07:23:37;;;;;;;26.13;12.10;;;;;;;;;;5043164;28;20273;-59
2023/04/16 07:26:03;;;;;;;29.17;13.70;;;;;;;;;;5042858;28;20080;-59
2023/04/16 07:28:29;;;;;;;27.42;12.77;;;;;;;;;;5043749;28;20541;-59
2023/04/16 07:30:55;;;;;;;27.55;13.48;;;;;;;;;;5047830;28;20052;-59
2023/04/16 07:33:21;;;;;;;28.75;13.40;;;;;;;;;;5052359;28;20036;-58
2023/04/16 07:35:48;;;;;;;26.88;12.93;;;;;;;;;;5048322;28;20033;-59
2023/04/16 07:38:15;;;;;;;28.83;13.77;;;;;;;;;;5053157;28;20044;-58
2023/04/16 07:40:41;;;;;;;30.30;13.50;;;;;;;;;;5049438;28;20504;-58
2023/04/16 07:43:07;;;;;;;31.77;14.30;;;;;;;;;;5053817;28;20419;-59
2023/04/16 07:45:33;;;;;;;28.42;13.40;;;;;;;;;;5047926;28;20112;-59
2023/04/16 07:48:00;;;;;;;32.47;13.57;;;;;;;;;;5058957;28;20705;-59
2023/04/16 07:50:26;;;;;;;31.67;14.55;;;;;;;;;;5051153;28;20029;-59
2023/04/16 07:52:52;;;;;;;28.15;13.32;;;;;;;;;;5048097;28;20044;-58
2023/04/16 07:55:18;;;;;;;30.25;14.20;;;;;;;;;;5048603;28;20032;-59
2023/04/16 07:57:44;;;;;;;28.60;13.82;;;;;;;;;;5049891;28;20037;-59
2023/04/16 08:00:11;;;;;;;28.05;13.48;;;;;;;;;;5038621;28;20021;-59
2023/04/16 08:02:40;;;;;;;31.38;14.30;;;;;;;;;;5041033;28;20445;-59
2023/04/16 08:05:07;;;;;;;29.45;14.13;;;;;;;;;;5044867;28;20037;-58
2023/04/16 08:07:33;;;;;;;30.27;13.50;;;;;;;;;;5048049;28;20516;-59
2023/04/16 08:09:59;;;;;;;29.35;13.68;;;;;;;;;;5047734;28;20044;-59
2023/04/16 08:12:25;;;;;;;38.00;15.88;;;;;;;;;;5049502;28;20052;-59
2023/04/16 08:14:51;;;;;;;36.65;16.85;;;;;;;;;;5046320;28;20029;-58
2023/04/16 08:17:18;;;;;;;33.88;15.00;;;;;;;;;;5046140;28;20046;-58
2023/04/16 08:19:44;;;;;;;29.65;13.73;;;;;;;;;;5048150;28;20433;-59
2023/04/16 08:22:11;;;;;;;30.95;14.88;;;;;;;;;;5041927;28;20398;-59
2023/04/16 08:24:37;;;;;;;32.25;14.18;;;;;;;;;;5035420;28;20042;-59
2023/04/16 08:27:04;;;;;;;33.15;16.05;;;;;;;;;;5043641;28;20085;-58
2023/04/16 08:29:30;;;;;;;34.88;14.73;;;;;;;;;;5047793;28;20043;-59
2023/04/16 08:31:57;;;;;;;35.97;15.98;;;;;;;;;;5048646;28;20033;-60
2023/04/16 08:34:23;;;;;;;34.90;16.10;;;;;;;;;;5044862;28;20044;-58
2023/04/16 08:36:49;;;;;;;34.70;15.82;;;;;;;;;;5050797;28;20044;-59
2023/04/16 08:39:16;;;;;;;32.72;15.60;;;;;;;;;;5067050;28;20048;-59
2023/04/16 08:41:44;;;;;;;30.05;14.52;;;;;;;;;;5053461;28;20051;-59
2023/04/16 08:44:19;;;;;;;34.30;16.30;;;;;;;;;;5054033;28;20483;-59
2023/04/16 08:46:45;;;;;;;32.95;15.38;;;;;;;;;;5054211;28;20035;-58
2023/04/16 08:49:19;;;;;;;29.70;14.75;;;;;;;;;;5045583;28;20049;-59
2023/04/16 08:51:50;;;;;;;35.95;15.90;;;;;;;;;;5048829;28;20029;-59
2023/04/16 08:54:41;;;;;;;34.47;15.20;;;;;;;;;;5046005;28;20029;-59
2023/04/16 08:57:10;;;;;;;31.25;15.07;;;;;;;;;;5042934;28;20398;-59
2023/04/16 08:59:38;;;;;;;29.92;15.07;;;;;;;;;;5039003;28;20037;-59
2023/04/16 09:02:05;;;;;;;30.55;15.38;;;;;;;;;;5044618;28;20056;-59
2023/04/16 09:04:32;;;;;;;32.10;15.80;;;;;;;;;;5038227;28;20041;-61
2023/04/16 09:07:00;;;;;;;35.33;15.20;;;;;;;;;;5043468;28;20456;-59
2023/04/16 09:09:27;;;;;;;35.15;15.55;;;;;;;;;;5043842;28;20045;-59
2023/04/16 09:11:55;;;;;;;35.13;15.20;;;;;;;;;;5046262;28;20050;-58
2023/04/16 09:14:21;;;;;;;33.80;16.23;;;;;;;;;;5048022;28;20029;-59
2023/04/16 09:16:51;;;;;;;30.40;14.00;;;;;;;;;;5051405;28;20048;-59
2023/04/16 09:19:18;;;;;;;29.58;14.32;;;;;;;;;;5044042;28;20049;-60
2023/04/16 09:21:47;;;;;;;34.05;15.30;;;;;;;;;;5045224;28;20499;-58
2023/04/16 09:24:13;;;;;;;36.42;16.27;;;;;;;;;;5048711;28;20081;-59
2023/04/16 09:26:42;;;;;;;30.75;16.73;;;;;;;;;;5050775;28;20040;-59
2023/04/16 09:29:08;;;;;;;32.27;16.27;;;;;;;;;;5041811;28;20045;-59
2023/04/16 09:31:34;;;;;;;34.08;15.43;;;;;;;;;;5044814;28;20029;-59
2023/04/16 09:34:01;;;;;;;33.00;15.77;;;;;;;;;;5048563;28;20406;-58
2023/04/16 09:36:28;;;;;;;33.78;17.73;;;;;;;;;;5059226;28;20474;-59
2023/04/16 09:38:54;;;;;;;34.17;16.23;;;;;;;;;;5044696;28;20418;-60
2023/04/16 09:41:29;;;;;;;31.25;15.73;;;;;;;;;;5052795;28;20052;-60
2023/04/16 09:43:57;;;;;;;33.50;16.92;;;;;;;;;;5054713;28;20052;-59
2023/04/16 09:46:32;;;;;;;29.02;15.30;;;;;;;;;;5044756;28;20060;-59
2023/04/16 09:49:07;;;;;;;29.95;15.02;;;;;;;;;;5045336;28;20041;-59
2023/04/16 09:51:37;;;;;;;29.00;14.77;;;;;;;;;;5044657;28;20044;-59
2023/04/16 09:54:05;;;;;;;29.02;14.25;;;;;;;;;;5045889;28;20041;-58
2023/04/16 09:56:31;;;;;;;28.52;14.05;;;;;;;;;;5045347;28;20045;-59
2023/04/16 09:59:00;;;;;;;27.25;12.77;;;;;;;;;;5045419;28;20053;-59
2023/04/16 10:01:29;;;;;;;27.27;13.45;;;;;;;;;;5046727;28;20041;-59
2023/04/16 10:03:57;;;;;;;28.02;13.77;;;;;;;;;;5048423;28;20391;-59
2023/04/16 10:06:26;;;;;;;26.33;12.77;;;;;;;;;;5045925;28;20060;-58
2023/04/16 10:08:55;;;;;;;26.23;13.27;;;;;;;;;;5048884;28;20526;-59
2023/04/16 10:11:22;;;;;;;29.63;14.05;;;;;;;;;;5051509;28;20029;-59
2023/04/16 10:13:49;;;;;;;32.22;14.10;;;;;;;;;;5052499;28;20032;-59
2023/04/16 10:16:16;;;;;;;29.58;13.75;;;;;;;;;;5048371;28;20055;-59
2023/04/16 10:18:44;;;;;;;26.45;13.27;;;;;;;;;;5048228;28;20491;-59
2023/04/16 10:21:11;;;;;;;24.95;13.05;;;;;;;;;;5050873;28;20406;-59
2023/04/16 10:23:38;;;;;;;26.65;13.35;;;;;;;;;;5051000;28;20044;-57
2023/04/16 10:26:05;;;;;;;26.27;13.48;;;;;;;;;;5047715;28;20039;-58
2023/04/16 10:28:34;;;;;;;25.65;13.23;;;;;;;;;;5045510;28;20036;-59
2023/04/16 10:31:06;;;;;;;25.90;14.18;;;;;;;;;;5051012;28;20040;-58
2023/04/16 10:33:34;;;;;;;26.65;13.60;;;;;;;;;;5054363;28;20045;-58
2023/04/16 10:36:22;;;;;;;24.30;12.63;;;;;;;;;;5046311;28;20372;-59
2023/04/16 10:38:52;;;;;;;30.25;14.40;;;;;;;;;;5056382;28;20044;-59
2023/04/16 10:41:21;;;;;;;28.95;13.95;;;;;;;;;;5059215;28;20037;-58
2023/04/16 10:43:49;;;;;;;26.20;12.77;;;;;;;;;;5055426;28;20049;-59
2023/04/16 10:46:25;;;;;;;27.92;13.32;;;;;;;;;;5050500;28;20037;-59
2023/04/16 10:48:53;;;;;;;26.55;12.98;;;;;;;;;;5050261;28;20061;-60
2023/04/16 10:51:34;;;;;;;28.85;14.30;;;;;;;;;;5049870;28;20386;-59
2023/04/16 10:54:25;;;;;;;25.88;12.80;;;;;;;;;;5049751;28;20052;-58
2023/04/16 10:56:54;;;;;;;25.15;12.35;;;;;;;;;;5051708;28;20039;-60
2023/04/16 10:59:22;;;;;;;30.42;13.05;;;;;;;;;;5049134;28;20032;-58
2023/04/16 11:01:54;;;;;;;31.35;12.90;;;;;;;;;;5048250;28;20048;-59
2023/04/16 11:04:20;;;;;;;27.52;12.73;;;;;;;;;;5049961;28;20064;-59
2023/04/16 11:07:05;;;;;;;26.10;13.15;;;;;;;;;;5053148;28;20486;-59
2023/04/16 11:09:53;;;;;;;30.67;15.52;;;;;;;;;;5045671;28;20037;-59
2023/04/16 11:12:20;;;;;;;26.70;13.48;;;;;;;;;;5041765;28;20037;-60
2023/04/16 11:14:49;;;;;;;26.92;13.20;;;;;;;;;;5042848;28;20045;-58
2023/04/16 11:17:16;;;;;;;28.35;14.85;;;;;;;;;;5039950;28;20048;-58
2023/04/16 11:19:43;;;;;;;28.83;14.15;;;;;;;;;;5045796;28;20429;-59
2023/04/16 11:22:15;;;;;;;25.65;13.40;;;;;;;;;;5050408;28;20060;-58
2023/04/16 11:24:45;;;;;;;31.35;14.35;;;;;;;;;;5055096;28;20032;-60
2023/04/16 11:27:13;;;;;;;30.85;13.98;;;;;;;;;;5046182;28;20376;-59
2023/04/16 11:29:40;;;;;;;29.10;13.85;;;;;;;;;;5043984;28;20061;-59
2023/04/16 11:32:06;;;;;;;28.58;14.18;;;;;;;;;;5051169;28;20057;-60
2023/04/16 11:34:33;;;;;;;31.58;14.90;;;;;;;;;;5052043;28;20052;-59
2023/04/16 11:36:59;;;;;;;27.05;13.82;;;;;;;;;;5047576;28;20688;-60
2023/04/16 11:39:25;;;;;;;28.17;12.60;;;;;;;;;;5055820;28;20501;-59
2023/04/16 11:41:51;;;;;;;26.10;12.50;;;;;;;;;;5057241;28;20041;-59
2023/04/16 11:44:18;;;;;;;19.40;10.00;;;;;;;;;;5053175;28;20037;-61
2023/04/16 11:46:44;;;;;;;23.48;11.10;;;;;;;;;;5047730;28;20036;-59
2023/04/16 11:49:10;;;;;;;25.00;13.43;;;;;;;;;;5048323;28;20044;-59
2023/04/16 11:51:45;;;;;;;29.85;14.55;;;;;;;;;;5049033;28;20104;-59
2023/04/16 11:54:22;;;;;;;29.90;14.38;;;;;;;;;;5048718;28;20046;-59
2023/04/16 11:56:49;;;;;;;23.60;11.80;;;;;;;;;;5044335;28;20049;-60
2023/04/16 11:59:17;;;;;;;23.95;11.98;;;;;;;;;;5047688;28;20040;-59
2023/04/16 12:01:54;;;;;;;24.50;11.75;;;;;;;;;;5051464;28;20040;-58
2023/04/16 12:04:25;;;;;;;24.10;11.30;;;;;;;;;;5046897;28;20414;-58
2023/04/16 12:07:11;;;;;;;22.30;11.27;;;;;;;;;;5047864;28;20040;-58
2023/04/16 12:09:40;;;;;;;24.45;11.70;;;;;;;;;;5051187;28;20032;-58
2023/04/16 12:12:24;;;;;;;25.45;12.93;;;;;;;;;;5047761;28;20041;-59
2023/04/16 12:14:53;;;;;;;22.60;12.20;;;;;;;;;;5047763;28;20064;-59
2023/04/16 12:17:20;;;;;;;22.13;10.95;;;;;;;;;;5051295;28;20044;-59
2023/04/16 12:19:51;;;;;;;25.42;11.52;;;;;;;;;;5041686;28;20703;-58
2023/04/16 12:22:29;;;;;;;24.27;12.45;;;;;;;;;;5044009;28;20041;-59
2023/04/16 12:24:58;;;;;;;23.25;11.25;;;;;;;;;;5049313;28;20071;-59
2023/04/16 12:27:27;;;;;;;18.10;9.43;;;;;;;;;;5042665;28;20035;-59
2023/04/16 12:30:06;;;;;;;18.23;8.43;;;;;;;;;;5047437;28;20158;-59
2023/04/16 12:32:33;;;;;;;18.00;7.72;;;;;;;;;;5044591;28;20041;-59
2023/04/16 12:34:59;;;;;;;13.80;7.95;;;;;;;;;;5057528;28;20533;-59
2023/04/16 12:37:26;;;;;;;16.58;7.30;;;;;;;;;;5059272;28;20400;-59
2023/04/16 12:39:52;;;;;;;18.33;7.93;;;;;;;;;;5052800;28;20519;-59
2023/04/16 12:42:20;;;;;;;17.08;8.07;;;;;;;;;;5049331;28;20037;-58
2023/04/16 12:44:46;;;;;;;17.13;7.95;;;;;;;;;;5046758;28;20048;-58
2023/04/16 12:47:12;;;;;;;13.95;7.03;;;;;;;;;;5048971;28;20044;-59
2023/04/16 12:49:39;;;;;;;13.45;7.53;;;;;;;;;;5044906;28;20045;-59
2023/04/16 12:52:05;;;;;;;13.95;6.57;;;;;;;;;;5048880;28;20037;-59
2023/04/16 12:54:32;;;;;;;12.50;7.22;;;;;;;;;;5048494;28;20390;-59
2023/04/16 12:56:58;;;;;;;15.05;7.78;;;;;;;;;;5048874;28;20040;-59
2023/04/16 12:59:24;;;;;;;14.32;7.35;;;;;;;;;;5049166;28;20036;-58
2023/04/16 13:01:50;;;;;;;12.68;6.68;;;;;;;;;;5047109;28;20131;-58
2023/04/16 13:04:17;;;;;;;11.27;6.18;;;;;;;;;;5047170;28;20029;-59
2023/04/16 13:06:44;;;;;;;11.27;6.20;;;;;;;;;;5046095;28;20478;-59
2023/04/16 13:09:11;;;;;;;13.40;7.00;;;;;;;;;;5045131;28;20044;-59
2023/04/16 13:11:37;;;;;;;10.35;5.93;;;;;;;;;;5044645;28;20036;-58
2023/04/16 13:14:03;;;;;;;8.73;5.38;;;;;;;;;;5047715;28;20502;-59
2023/04/16 13:16:29;;;;;;;9.38;4.85;;;;;;;;;;5047969;28;20032;-58
2023/04/16 13:18:55;;;;;;;8.00;4.93;;;;;;;;;;5046131;28;20430;-59
2023/04/16 13:21:22;;;;;;;8.27;5.03;;;;;;;;;;5043467;28;20037;-59
2023/04/16 13:23:48;;;;;;;7.97;4.50;;;;;;;;;;5044509;28;20037;-59
2023/04/16 13:26:15;;;;;;;4.82;3.60;;;;;;;;;;5050258;28;20410;-59
2023/04/16 13:28:41;;;;;;;6.70;4.53;;;;;;;;;;5045346;28;20048;-59
2023/04/16 13:31:08;;;;;;;6.47;4.35;;;;;;;;;;5051033;28;20049;-58
2023/04/16 13:33:35;;;;;;;5.68;4.28;;;;;;;;;;5040746;28;20060;-58
2023/04/16 13:36:02;;;;;;;6.70;4.38;;;;;;;;;;5032350;28;20049;-59
2023/04/16 13:38:28;;;;;;;5.10;4.00;;;;;;;;;;5054605;28;20033;-57
2023/04/16 13:40:54;;;;;;;7.95;6.10;;;;;;;;;;5045590;28;20030;-59
2023/04/16 13:43:21;;;;;;;7.05;4.68;;;;;;;;;;5051284;28;20052;-58
2023/04/16 13:45:47;;;;;;;6.97;4.68;;;;;;;;;;5050787;28;20037;-59
2023/04/16 13:48:13;;;;;;;7.32;4.47;;;;;;;;;;5051437;28;20402;-59
2023/04/16 13:50:39;;;;;;;8.80;5.13;;;;;;;;;;5047909;28;20048;-58
2023/04/16 13:53:05;;;;;;;6.95;4.35;;;;;;;;;;5053336;28;20048;-61
2023/04/16 13:55:32;;;;;;;9.70;5.10;;;;;;;;;;5051980;28;20049;-61
2023/04/16 13:57:58;;;;;;;8.00;5.22;;;;;;;;;;5051840;28;20518;-59
2023/04/16 14:00:26;;;;;;;8.18;4.90;;;;;;;;;;5049049;28;20029;-59
2023/04/16 14:02:52;;;;;;;9.68;5.45;;;;;;;;;;5049826;28;20040;-60
2023/04/16 14:05:18;;;;;;;9.13;4.93;;;;;;;;;;5051619;28;20045;-59
2023/04/16 14:07:45;;;;;;;6.95;4.32;;;;;;;;;;5053886;28;20049;-59
2023/04/16 14:10:11;;;;;;;7.53;4.25;;;;;;;;;;5048338;28;20049;-59
2023/04/16 14:12:38;;;;;;;7.70;5.07;;;;;;;;;;5047902;28;20036;-59
2023/04/16 14:15:05;;;;;;;8.82;5.32;;;;;;;;;;5050232;28;20032;-59
2023/04/16 14:17:31;;;;;;;7.47;4.72;;;;;;;;;;5053634;28;20045;-59
2023/04/16 14:19:58;;;;;;;8.05;4.75;;;;;;;;;;5049337;28;20044;-60
2023/04/16 14:22:24;;;;;;;7.00;4.95;;;;;;;;;;5047845;28;20534;-59
2023/04/16 14:24:50;;;;;;;6.57;4.45;;;;;;;;;;5049060;28;20056;-58
2023/04/16 14:27:16;;;;;;;9.88;5.40;;;;;;;;;;5043031;28;20040;-58
2023/04/16 14:29:45;;;;;;;11.05;5.70;;;;;;;;;;5047835;28;20517;-59
2023/04/16 14:32:11;;;;;;;8.02;5.32;;;;;;;;;;5040289;28;20040;-58